Time;durP1;ratioP1;P1;durP2;ratioP2;P2;SDS_P1;SDS_P2;PMS_P1;PMS_P2;Temp;Humidity;BMP_temperature;BMP_pressure;BME280_temperature;BME280_humidity;BME280_pressure;Samples;Min_cycle;Max_cycle;Signal;HPM_P1;HPM_P2
2023/02/08 00:00:28;;;;;;;15.6;11.8;;;;;;;-2.91;81.11035;953.3253;;;;
2023/02/08 00:02:54;;;;;;;18.3;12.1;;;;;;;-2.9;80.47266;953.3049;;;;
2023/02/08 00:05:23;;;;;;;16.5;11.6;;;;;;;-3.06;80.84863;953.3299;;;;
2023/02/08 00:07:56;;;;;;;19.5;13.3;;;;;;;-2.84;80.16211;953.2662;;;;
2023/02/08 00:10:36;;;;;;;18.4;12;;;;;;;-2.8;79.93848;953.2834;;;;
2023/02/08 00:13:04;;;;;;;16.4;12.5;;;;;;;-2.68;79.39453;953.2101;;;;
2023/02/08 00:15:32;;;;;;;17.4;12.2;;;;;;;-2.64;79.11523;953.188;;;;
2023/02/08 00:18:01;;;;;;;16.7;12;;;;;;;-2.73;78.91016;953.1752;;;;
2023/02/08 00:20:51;;;;;;;17.3;12;;;;;;;-2.75;78.93945;953.0154;;;;
2023/02/08 00:23:33;;;;;;;17.7;12.1;;;;;;;-2.84;79.0332;953.1005;;;;
2023/02/08 00:26:05;;;;;;;15.2;11.3;;;;;;;-2.95;79.37793;953.032;;;;
2023/02/08 00:28:31;;;;;;;17;12;;;;;;;-3.07;79.83105;953.0433;;;;
2023/02/08 00:30:56;;;;;;;15;11.3;;;;;;;-3.08;79.75;953.0617;;;;
2023/02/08 00:33:22;;;;;;;15.4;11;;;;;;;-3.23;80.14258;953.0407;;;;
2023/02/08 00:35:48;;;;;;;16.8;11.6;;;;;;;-3.36;80.82617;953.0119;;;;
2023/02/08 00:38:19;;;;;;;16.2;11.8;;;;;;;-3.21;80.55566;953.028;;;;
2023/02/08 00:40:46;;;;;;;17.9;12.6;;;;;;;-3.09;79.79297;952.9881;;;;
2023/02/08 00:43:13;;;;;;;16.5;11.9;;;;;;;-3.17;79.68945;952.9797;;;;
2023/02/08 00:45:38;;;;;;;14;11.1;;;;;;;-3.23;79.85547;953.0148;;;;
2023/02/08 00:48:08;;;;;;;16.9;12;;;;;;;-3.14;79.79395;952.8884;;;;
2023/02/08 00:50:36;;;;;;;17.3;11.6;;;;;;;-3.25;79.97363;952.9872;;;;
2023/02/08 00:53:06;;;;;;;14.9;10.8;;;;;;;-3.26;80.32422;952.9593;;;;
2023/02/08 00:55:36;;;;;;;14.9;10.3;;;;;;;-3.35;80.36328;952.952;;;;
2023/02/08 00:58:01;;;;;;;13.9;10.5;;;;;;;-3.57;81.43555;952.9825;;;;
2023/02/08 01:00:30;;;;;;;14.8;10.8;;;;;;;-3.63;82.1084;952.9994;;;;
2023/02/08 01:02:56;;;;;;;15.7;11.2;;;;;;;-3.65;82.43652;952.9846;;;;
2023/02/08 01:05:24;;;;;;;15.7;10.3;;;;;;;-3.75;82.51758;952.9836;;;;
2023/02/08 01:07:50;;;;;;;15.4;10.8;;;;;;;-3.77;82.61133;952.9247;;;;
2023/02/08 01:10:19;;;;;;;16.5;11.2;;;;;;;-3.77;82.78809;952.9171;;;;
2023/02/08 01:15:09;;;;;;;14.3;10.7;;;;;;;-3.75;82.48242;952.8041;;;;
2023/02/08 01:17:39;;;;;;;16.7;11.1;;;;;;;-3.73;82.62012;952.9277;;;;
2023/02/08 01:20:12;;;;;;;15.3;11.1;;;;;;;-3.59;81.87207;952.8459;;;;
2023/02/08 01:22:42;;;;;;;14.7;10.3;;;;;;;-3.54;81.2666;952.9409;;;;
2023/02/08 01:25:13;;;;;;;14.9;10.7;;;;;;;-3.71;82.0166;952.8984;;;;
2023/02/08 01:27:42;;;;;;;17.3;11.2;;;;;;;-3.83;82.5332;952.8881;;;;
2023/02/08 01:30:07;;;;;;;16.5;11.2;;;;;;;-3.87;82.72656;952.885;;;;
2023/02/08 01:32:32;;;;;;;15.4;10.9;;;;;;;-3.92;82.78027;952.8475;;;;
2023/02/08 01:35:01;;;;;;;14.8;9.5;;;;;;;-3.99;83.15332;952.8495;;;;
2023/02/08 01:37:27;;;;;;;13.6;9.6;;;;;;;-3.98;83.23242;952.7929;;;;
2023/02/08 01:39:54;;;;;;;14.8;9.6;;;;;;;-3.93;83.16406;952.7554;;;;
2023/02/08 01:42:19;;;;;;;15.1;9.8;;;;;;;-3.94;82.72266;952.713;;;;
2023/02/08 01:44:48;;;;;;;15;10.1;;;;;;;-3.94;82.68848;952.7447;;;;
2023/02/08 01:47:13;;;;;;;13.2;9.3;;;;;;;-3.94;82.02734;952.8586;;;;
2023/02/08 01:49:38;;;;;;;11.8;8.5;;;;;;;-3.98;81.97266;952.8837;;;;
2023/02/08 01:52:03;;;;;;;12;8.3;;;;;;;-4;80.89941;952.8477;;;;
2023/02/08 01:54:29;;;;;;;12.9;8.1;;;;;;;-4.01;80.74512;952.8298;;;;
2023/02/08 01:56:54;;;;;;;11.7;7.1;;;;;;;-3.99;79.49023;952.803;;;;
2023/02/08 01:59:25;;;;;;;11.2;7.2;;;;;;;-3.97;79.74707;952.6953;;;;
2023/02/08 02:01:49;;;;;;;9.5;6.7;;;;;;;-4.01;79.39648;952.7697;;;;
2023/02/08 02:04:15;;;;;;;9.8;6.2;;;;;;;-4;79.63184;952.8005;;;;
2023/02/08 02:06:42;;;;;;;9.7;6.9;;;;;;;-3.98;78.83887;952.7079;;;;
2023/02/08 02:09:07;;;;;;;9.3;6.3;;;;;;;-4.08;78.46777;952.788;;;;
2023/02/08 02:11:32;;;;;;;8.7;5.7;;;;;;;-4.08;78.16992;952.8284;;;;
2023/02/08 02:13:57;;;;;;;10;6.6;;;;;;;-4.13;78.55859;952.8472;;;;
2023/02/08 02:16:25;;;;;;;10.7;7.1;;;;;;;-3.99;78.39746;952.843;;;;
2023/02/08 02:18:50;;;;;;;9.9;6.7;;;;;;;-4.11;78.95898;952.8884;;;;
2023/02/08 02:21:16;;;;;;;8.5;5.9;;;;;;;-4.1;77.94727;952.8328;;;;
2023/02/08 02:23:43;;;;;;;9;6.5;;;;;;;-4.11;78.45117;952.7469;;;;
2023/02/08 02:26:09;;;;;;;11.9;7.7;;;;;;;-4.14;79.0752;952.7198;;;;
2023/02/08 02:28:39;;;;;;;11.5;8;;;;;;;-4.2;79.55957;952.8214;;;;
2023/02/08 02:31:14;;;;;;;10.4;7;;;;;;;-4.3;80.10254;952.7774;;;;
2023/02/08 02:33:39;;;;;;;10.9;7;;;;;;;-4.31;79.9248;952.7361;;;;
2023/02/08 02:36:08;;;;;;;9.4;6.4;;;;;;;-4.24;79.22168;952.5971;;;;
2023/02/08 02:38:54;;;;;;;9.1;6.2;;;;;;;-4.24;78.66992;952.6552;;;;
2023/02/08 02:43:40;;;;;;;12.2;7.8;;;;;;;-4.27;78.78613;952.6437;;;;
2023/02/08 02:43:47;;;;;;;8.9;6.4;;;;;;;-4.29;78.23047;952.558;;;;
2023/02/08 02:46:17;;;;;;;10.4;6.5;;;;;;;-4.31;77.52051;952.6403;;;;
2023/02/08 02:48:44;;;;;;;7.9;6;;;;;;;-4.41;77.53516;952.6906;;;;
2023/02/08 02:51:09;;;;;;;9.7;6.2;;;;;;;-4.54;78.53516;952.5655;;;;
2023/02/08 02:54:28;;;;;;;12;7.2;;;;;;;-4.47;79.15527;952.7194;;;;
2023/02/08 02:56:45;;;;;;;16.1;8.9;;;;;;;-4.45;80.99023;952.6605;;;;
2023/02/08 02:59:12;;;;;;;14.1;9.2;;;;;;;-4.52;81.96777;952.6481;;;;
2023/02/08 03:07:36;;;;;;;17.6;9.8;;;;;;;-4.82;83.66016;952.5969;;;;
2023/02/08 03:10:01;;;;;;;14;9.4;;;;;;;-4.83;83.98828;952.58;;;;
2023/02/08 03:12:26;;;;;;;13.7;9;;;;;;;-4.8;83.4541;952.6043;;;;
2023/02/08 03:14:51;;;;;;;14.1;9.1;;;;;;;-4.78;83.25098;952.5179;;;;
2023/02/08 03:17:19;;;;;;;14.4;9.3;;;;;;;-4.91;83.70801;952.5044;;;;
2023/02/08 03:19:48;;;;;;;15.4;10.1;;;;;;;-4.87;84.38672;952.6033;;;;
2023/02/08 03:22:17;;;;;;;16.6;9.9;;;;;;;-4.81;83.98145;952.6063;;;;
2023/02/08 03:24:42;;;;;;;16.4;10.1;;;;;;;-4.82;84.20898;952.595;;;;
2023/02/08 03:27:07;;;;;;;17.4;10.2;;;;;;;-4.86;84.22363;952.5856;;;;
2023/02/08 03:29:32;;;;;;;15.9;9.9;;;;;;;-4.8;83.87305;952.594;;;;
2023/02/08 03:32:38;;;;;;;16.6;9.9;;;;;;;-4.84;84.22949;952.5869;;;;
2023/02/08 03:35:03;;;;;;;17;10.5;;;;;;;-4.97;84.56641;952.6381;;;;
2023/02/08 03:37:28;;;;;;;16.8;10.1;;;;;;;-4.95;84.62402;952.7508;;;;
2023/02/08 03:39:53;;;;;;;20.8;12.9;;;;;;;-4.92;84.45313;952.7043;;;;
2023/02/08 03:42:50;;;;;;;15.5;10;;;;;;;-4.95;84.31543;952.7405;;;;
2023/02/08 03:45:17;;;;;;;13.8;9.8;;;;;;;-5.23;85.4248;952.7416;;;;
2023/02/08 03:48:05;;;;;;;15.3;9.8;;;;;;;-5.14;85.6543;952.8055;;;;
2023/02/08 03:50:31;;;;;;;13.5;9.1;;;;;;;-5.01;85.42676;952.7497;;;;
2023/02/08 03:52:55;;;;;;;17;9.9;;;;;;;-5.17;85.625;952.7427;;;;
2023/02/08 03:55:23;;;;;;;13.5;8.9;;;;;;;-5.23;86.02051;952.6887;;;;
2023/02/08 03:58:52;;;;;;;15.2;10.1;;;;;;;-5.24;86.29395;952.7458;;;;
2023/02/08 04:06:09;;;;;;;14;8.8;;;;;;;-5.52;87.07129;952.7534;;;;
2023/02/08 04:08:34;;;;;;;13.5;9;;;;;;;-5.55;86.86816;952.7025;;;;
2023/02/08 04:11:00;;;;;;;13.7;8.6;;;;;;;-5.7;87.45117;952.5936;;;;
2023/02/08 04:13:27;;;;;;;15.7;9.4;;;;;;;-5.66;87.61133;952.6522;;;;
2023/02/08 04:15:52;;;;;;;14.7;9.6;;;;;;;-5.66;87.52539;952.6682;;;;
2023/02/08 04:21:15;;;;;;;18.6;10.1;;;;;;;-5.65;87.35059;952.6536;;;;
2023/02/08 04:23:40;;;;;;;16.5;10.1;;;;;;;-5.68;87.58496;952.5809;;;;
2023/02/08 04:30:00;;;;;;;17.9;10.4;;;;;;;-5.67;87.09473;952.5726;;;;
2023/02/08 04:32:13;;;;;;;17.3;10.3;;;;;;;-5.7;86.99023;952.5015;;;;
2023/02/08 04:34:43;;;;;;;16.1;9.9;;;;;;;-5.72;86.95117;952.4722;;;;
2023/02/08 04:37:09;;;;;;;16.1;10;;;;;;;-5.76;87.19434;952.4432;;;;
2023/02/08 04:39:33;;;;;;;18.2;12.3;;;;;;;-5.68;87.22461;952.4155;;;;
2023/02/08 04:41:59;;;;;;;16.9;10.4;;;;;;;-5.69;86.66211;952.4078;;;;
2023/02/08 04:44:31;;;;;;;15.9;9.9;;;;;;;-5.83;86.61035;952.3695;;;;
2023/02/08 04:46:54;;;;;;;14.2;9.6;;;;;;;-5.98;86.97559;952.3164;;;;
2023/02/08 04:49:20;;;;;;;16;10;;;;;;;-5.96;87.11133;952.2857;;;;
2023/02/08 04:51:45;;;;;;;18;10.6;;;;;;;-5.99;87.40137;952.2297;;;;
2023/02/08 04:54:11;;;;;;;15.6;10.1;;;;;;;-5.97;87.40332;952.1908;;;;
2023/02/08 04:56:37;;;;;;;16.1;10;;;;;;;-5.95;87.28809;952.1942;;;;
2023/02/08 04:59:03;;;;;;;15.1;10.3;;;;;;;-5.9;87.04492;952.1322;;;;
2023/02/08 05:01:28;;;;;;;16.8;10.5;;;;;;;-5.84;86.77344;952.1415;;;;
2023/02/08 05:03:53;;;;;;;14.5;9.8;;;;;;;-5.91;86.5625;952.1167;;;;
2023/02/08 05:06:18;;;;;;;13.8;9.6;;;;;;;-5.99;87.38867;952.0245;;;;
2023/02/08 05:08:48;;;;;;;18;9.7;;;;;;;-6.02;87.29492;952.0797;;;;
2023/02/08 05:11:18;;;;;;;16.6;10.3;;;;;;;-6.06;87.47461;952.0589;;;;
2023/02/08 05:13:43;;;;;;;15.7;9.5;;;;;;;-6.14;87.52148;952.0566;;;;
2023/02/08 05:16:10;;;;;;;14.7;9.4;;;;;;;-6.24;88.0293;952.0394;;;;
2023/02/08 05:18:39;;;;;;;15.9;10.6;;;;;;;-6.26;88.20996;952.0572;;;;
2023/02/08 05:21:04;;;;;;;28.9;13.7;;;;;;;-6.16;88.52734;952.0835;;;;
2023/02/08 05:23:37;;;;;;;24.5;13.3;;;;;;;-6.07;88.43848;952.0403;;;;
2023/02/08 05:26:07;;;;;;;21.9;13.1;;;;;;;-5.99;87.95996;952.053;;;;
2023/02/08 05:28:36;;;;;;;21.2;13.4;;;;;;;-5.9;87.55078;952.0231;;;;
2023/02/08 05:31:07;;;;;;;19;11.4;;;;;;;-5.96;86.77051;952.0211;;;;
2023/02/08 05:33:38;;;;;;;18.5;10.9;;;;;;;-6.14;87.12598;952.0782;;;;
2023/02/08 05:36:03;;;;;;;18;11.4;;;;;;;-6.12;87.21777;951.9529;;;;
2023/02/08 05:38:34;;;;;;;15.4;9.9;;;;;;;-6.07;87.36035;952.0327;;;;
2023/02/08 05:40:59;;;;;;;17.8;12.5;;;;;;;-6.17;87.2959;951.9952;;;;
2023/02/08 05:43:29;;;;;;;17.3;10.9;;;;;;;-6.15;87.72754;951.9972;;;;
2023/02/08 05:45:55;;;;;;;17;11.1;;;;;;;-6.1;87.59668;952.0391;;;;
2023/02/08 05:48:27;;;;;;;18.1;11.3;;;;;;;-6.12;87.54883;952.0868;;;;
2023/02/08 05:50:56;;;;;;;16.3;10;;;;;;;-6.24;87.95215;952.103;;;;
2023/02/08 05:56:19;;;;;;;16.3;10.9;;;;;;;-6.26;88.79297;952.068;;;;
2023/02/08 05:58:44;;;;;;;17.1;10.1;;;;;;;-6.18;88.53418;951.9519;;;;
2023/02/08 06:01:15;;;;;;;15.7;10.5;;;;;;;-6.04;88.16992;952.0655;;;;
2023/02/08 06:03:46;;;;;;;15.2;10.1;;;;;;;-5.9;87.2207;952.084;;;;
2023/02/08 06:06:11;;;;;;;18.8;10.6;;;;;;;-5.92;86.97559;952.1872;;;;
2023/02/08 06:08:39;;;;;;;14.8;9.8;;;;;;;-5.88;86.65332;952.0179;;;;
2023/02/08 06:11:04;;;;;;;13.2;9.1;;;;;;;-5.74;85.68164;952.1146;;;;
2023/02/08 06:13:32;;;;;;;15.3;9.5;;;;;;;-5.63;84.66211;952.0751;;;;
2023/02/08 06:15:57;;;;;;;12.5;8.4;;;;;;;-5.67;83.80859;952.1108;;;;
2023/02/08 06:18:26;;;;;;;18.7;10.6;;;;;;;-5.57;82.7168;952.1484;;;;
2023/02/08 06:20:56;;;;;;;19.9;12.9;;;;;;;-5.6;83.60156;952.1456;;;;
2023/02/08 06:23:21;;;;;;;19;11.2;;;;;;;-5.53;83.2002;952.1923;;;;
2023/02/08 06:25:49;;;;;;;17.8;11.4;;;;;;;-5.46;82.43164;952.2045;;;;
2023/02/08 06:28:14;;;;;;;100.4;52.8;;;;;;;-5.54;80.82227;952.2489;;;;
2023/02/08 06:30:43;;;;;;;20.3;12.2;;;;;;;-5.64;81.56055;952.275;;;;
2023/02/08 06:33:08;;;;;;;17.9;10.8;;;;;;;-5.7;82.74805;952.2952;;;;
2023/02/08 06:36:06;;;;;;;22.2;11.6;;;;;;;-5.64;83.04492;952.2801;;;;
2023/02/08 06:38:35;;;;;;;34.5;20;;;;;;;-5.64;82.56152;952.233;;;;
2023/02/08 06:41:06;;;;;;;29.4;17.5;;;;;;;-5.59;82.1543;952.2317;;;;
2023/02/08 06:43:31;;;;;;;20.5;10.6;;;;;;;-5.58;82.74805;952.2322;;;;
2023/02/08 06:46:03;;;;;;;13.8;10.1;;;;;;;-5.61;83.23535;952.2126;;;;
2023/02/08 06:48:24;;;;;;;13.8;10.4;;;;;;;-5.57;85.45508;952.1824;;;;
2023/02/08 06:50:54;;;;;;;28.4;15.9;;;;;;;-5.57;84.69727;952.2621;;;;
2023/02/08 06:53:22;;;;;;;16.7;10.3;;;;;;;-5.58;84.1875;952.2073;;;;
2023/02/08 06:55:47;;;;;;;44.3;21.9;;;;;;;-5.46;82.29785;952.2103;;;;
2023/02/08 06:58:14;;;;;;;15.9;10.1;;;;;;;-5.51;83.12695;952.233;;;;
2023/02/08 07:00:40;;;;;;;58.4;28.6;;;;;;;-5.46;83.0918;952.2397;;;;
2023/02/08 07:03:10;;;;;;;13.8;8.6;;;;;;;-5.44;82.5459;952.2292;;;;
2023/02/08 07:05:38;;;;;;;19.9;12.3;;;;;;;-5.43;82.66797;952.2311;;;;
2023/02/08 07:08:03;;;;;;;19.4;11.1;;;;;;;-5.63;83.87988;952.2247;;;;
2023/02/08 07:10:28;;;;;;;14.7;8.9;;;;;;;-5.57;84.34473;952.2522;;;;
2023/02/08 07:13:32;;;;;;;15.6;10.3;;;;;;;-5.45;84.25879;952.1124;;;;
2023/02/08 07:15:57;;;;;;;19.8;12.4;;;;;;;-5.22;83.3252;952.2823;;;;
2023/02/08 07:18:27;;;;;;;18.7;12.2;;;;;;;-4.78;81.80566;952.1624;;;;
2023/02/08 07:20:52;;;;;;;17.2;10.1;;;;;;;-4.69;81.15137;952.247;;;;
2023/02/08 07:23:20;;;;;;;18.2;10.8;;;;;;;-4.41;80.09277;952.0982;;;;
2023/02/08 07:25:46;;;;;;;29;17.7;;;;;;;-4.24;80.52246;952.123;;;;
2023/02/08 07:28:16;;;;;;;16;10.9;;;;;;;-3.94;78.5957;952.1507;;;;
2023/02/08 07:30:47;;;;;;;38.9;24.8;;;;;;;-3.27;77.39355;952.1448;;;;
2023/02/08 07:33:15;;;;;;;70;46.5;;;;;;;-2.57;74.64453;952.0916;;;;
2023/02/08 07:35:41;;;;;;;210.1;158;;;;;;;-3.13;74.72168;951.9689;;;;
2023/02/08 07:38:13;;;;;;;88;68.7;;;;;;;-3.11;74.18164;952.0511;;;;
2023/02/08 07:40:38;;;;;;;42.8;36.6;;;;;;;-3.22;74.48438;951.9756;;;;
2023/02/08 07:43:08;;;;;;;16.2;10.8;;;;;;;-3.15;74.8623;952.028;;;;
2023/02/08 07:45:34;;;;;;;12.4;9.1;;;;;;;-3.05;73.63086;951.9471;;;;
2023/02/08 07:47:59;;;;;;;14.6;9.4;;;;;;;-2.99;73.4082;952.0563;;;;
2023/02/08 07:50:27;;;;;;;12.9;8.8;;;;;;;-2.7;73.23828;951.9875;;;;
2023/02/08 07:52:52;;;;;;;13.2;9.3;;;;;;;-2.55;72.43164;951.9821;;;;
2023/02/08 07:55:23;;;;;;;11.7;8.6;;;;;;;-2.65;72.50293;952.0978;;;;
2023/02/08 07:57:53;;;;;;;12.8;8.1;;;;;;;-2.19;71.50781;951.9395;;;;
2023/02/08 08:00:25;;;;;;;11.3;7.6;;;;;;;-1.89;69.38867;951.8819;;;;
2023/02/08 08:02:51;;;;;;;11.4;7.5;;;;;;;-1.83;69.83008;951.9575;;;;
2023/02/08 08:05:16;;;;;;;12.7;8;;;;;;;-1.51;68.35059;951.9542;;;;
2023/02/08 08:07:41;;;;;;;12.1;8.3;;;;;;;-1.7;68.66504;951.903;;;;
2023/02/08 08:10:14;;;;;;;12;8.1;;;;;;;-1.38;68.12695;952.001;;;;
2023/02/08 08:12:39;;;;;;;12.4;7.3;;;;;;;-0.72;66.73438;951.9161;;;;
2023/02/08 08:15:09;;;;;;;10.9;7.5;;;;;;;-0.92;66.0791;951.9197;;;;
2023/02/08 08:17:42;;;;;;;10.2;6.8;;;;;;;-0.64;64.03125;951.8789;;;;
2023/02/08 08:20:15;;;;;;;9.4;6;;;;;;;-1.02;65.05176;951.8956;;;;
2023/02/08 08:22:40;;;;;;;15.5;7.1;;;;;;;-0.95;65.74121;951.8401;;;;
2023/02/08 08:25:07;;;;;;;10.3;6.6;;;;;;;-0.93;65.12305;951.8979;;;;
2023/02/08 08:27:33;;;;;;;10.3;6.8;;;;;;;-0.66;64.16406;951.8236;;;;
2023/02/08 08:30:00;;;;;;;10.9;6.9;;;;;;;-0.38;63.43848;951.868;;;;
2023/02/08 08:32:26;;;;;;;9.5;6.8;;;;;;;0.5;60.05664;951.7654;;;;
2023/02/08 08:34:51;;;;;;;9.1;4.7;;;;;;;0.6;56.12207;951.7377;;;;
2023/02/08 08:37:24;;;;;;;7.1;4.8;;;;;;;2.2;53.35547;951.755;;;;
2023/02/08 08:39:53;;;;;;;7.2;5.3;;;;;;;1.04;54.38184;951.7488;;;;
2023/02/08 08:42:19;;;;;;;8.6;5.5;;;;;;;1.91;53.74512;951.7352;;;;
2023/02/08 08:44:44;;;;;;;14.7;6.9;;;;;;;2.67;50.57813;951.7453;;;;
2023/02/08 08:47:12;;;;;;;9.3;6.3;;;;;;;2.62;50.34863;951.795;;;;
2023/02/08 08:49:37;;;;;;;9.7;6;;;;;;;3.43;49.01855;951.7068;;;;
2023/02/08 08:52:06;;;;;;;11.5;5.9;;;;;;;3.28;48.18262;951.7491;;;;
2023/02/08 08:54:29;;;;;;;15.4;6.1;;;;;;;2.46;50.07227;951.7756;;;;
2023/02/08 08:56:59;;;;;;;10.3;5.9;;;;;;;1.29;52.46973;951.786;;;;
2023/02/08 08:59:29;;;;;;;9.5;6.4;;;;;;;0.86;54.82715;951.7498;;;;
2023/02/08 09:01:55;;;;;;;12.2;6.7;;;;;;;0.14;57.35352;951.8108;;;;
2023/02/08 09:04:27;;;;;;;11.8;6;;;;;;;-0.13;57.47266;951.7867;;;;
2023/02/08 09:06:52;;;;;;;10.3;6.1;;;;;;;-0.24;59.47266;951.7438;;;;
2023/02/08 09:09:17;;;;;;;10;6.4;;;;;;;-0.46;59.52051;951.7469;;;;
2023/02/08 09:11:45;;;;;;;9.2;5.9;;;;;;;-0.66;59.47949;951.7512;;;;
2023/02/08 09:14:13;;;;;;;9;5;;;;;;;-0.3;59.75488;951.7022;;;;
2023/02/08 09:16:38;;;;;;;6.5;4.8;;;;;;;-0.19;61.36133;951.7058;;;;
2023/02/08 09:19:04;;;;;;;6.7;5;;;;;;;-0.47;64.16895;951.7196;;;;
2023/02/08 09:21:29;;;;;;;10;6.1;;;;;;;-0.51;63.26172;951.7658;;;;
2023/02/08 09:23:55;;;;;;;8.5;5.9;;;;;;;-0.44;62.95996;951.7417;;;;
2023/02/08 09:26:24;;;;;;;11;6.2;;;;;;;-0.14;62.96094;951.7673;;;;
2023/02/08 09:28:48;;;;;;;14.3;7.2;;;;;;;-0.57;61.74023;951.7399;;;;
2023/02/08 09:31:15;;;;;;;10.8;6.7;;;;;;;-0.83;63.21484;951.6531;;;;
2023/02/08 09:33:40;;;;;;;10.2;6.5;;;;;;;-0.65;64.1875;951.6707;;;;
2023/02/08 09:36:08;;;;;;;9.9;6.5;;;;;;;-0.26;61.98633;951.5776;;;;
2023/02/08 09:38:33;;;;;;;9.6;5.9;;;;;;;0;60.81055;951.6833;;;;
2023/02/08 09:41:01;;;;;;;10;5.4;;;;;;;0.28;59.66992;951.6618;;;;
2023/02/08 09:43:30;;;;;;;9.6;6.2;;;;;;;0.34;61.08203;951.6531;;;;
2023/02/08 09:45:55;;;;;;;15;8.7;;;;;;;0.21;65.54297;951.6283;;;;
2023/02/08 09:48:21;;;;;;;15.7;8.6;;;;;;;0.18;64.70215;951.5892;;;;
2023/02/08 09:50:48;;;;;;;18.2;9.9;;;;;;;0.4;65.03809;951.5974;;;;
2023/02/08 09:53:18;;;;;;;14.2;8.7;;;;;;;0.78;63.8916;951.5298;;;;
2023/02/08 09:55:42;;;;;;;14.1;8.7;;;;;;;1.16;62.0166;951.4814;;;;
2023/02/08 09:58:08;;;;;;;14.1;9.7;;;;;;;1.81;59.80859;951.5313;;;;
2023/02/08 10:00:33;;;;;;;15.2;10;;;;;;;2.27;58.56152;951.5909;;;;
2023/02/08 10:03:02;;;;;;;16.8;10.5;;;;;;;2.72;56.88574;951.5287;;;;
2023/02/08 10:05:31;;;;;;;14.6;9.8;;;;;;;3.73;53.31152;951.6121;;;;
2023/02/08 10:08:01;;;;;;;14.4;9.3;;;;;;;4.49;50.83008;951.5543;;;;
2023/02/08 10:10:26;;;;;;;13.7;9;;;;;;;4.31;51.26953;951.6611;;;;
2023/02/08 10:12:53;;;;;;;15.5;8.8;;;;;;;4.77;49.13965;951.6082;;;;
2023/02/08 10:15:19;;;;;;;15.8;9.5;;;;;;;4.55;50.2168;951.626;;;;
2023/02/08 10:17:48;;;;;;;13.6;9.1;;;;;;;3.8;51.89453;951.6617;;;;
2023/02/08 10:20:17;;;;;;;17.4;9.7;;;;;;;3.75;52.86621;951.6819;;;;
2023/02/08 10:22:47;;;;;;;13.7;9;;;;;;;3.17;53.53516;951.6747;;;;
2023/02/08 10:25:14;;;;;;;11.6;8.4;;;;;;;2.16;56.02637;951.6078;;;;
2023/02/08 10:27:39;;;;;;;14.5;8.7;;;;;;;1.75;58.56836;951.6463;;;;
2023/02/08 10:30:09;;;;;;;15.1;9.6;;;;;;;1.81;58.30762;951.61;;;;
2023/02/08 10:32:39;;;;;;;12.8;8.9;;;;;;;2.37;57.5127;951.5634;;;;
2023/02/08 10:35:14;;;;;;;13;8;;;;;;;2.92;53.46875;951.5204;;;;
2023/02/08 10:37:45;;;;;;;13.8;8.6;;;;;;;3.07;53.83496;951.4785;;;;
2023/02/08 10:40:09;;;;;;;13.1;8;;;;;;;3.37;53.49219;951.47;;;;
2023/02/08 10:42:40;;;;;;;11.1;7.7;;;;;;;3.1;52.86328;951.5211;;;;
2023/02/08 10:45:09;;;;;;;10.4;7.3;;;;;;;2.43;55.41309;951.4675;;;;
2023/02/08 10:47:37;;;;;;;14;9;;;;;;;2.12;57.80273;951.5541;;;;
2023/02/08 10:50:05;;;;;;;11.4;7.8;;;;;;;1.98;56.30566;951.4836;;;;
2023/02/08 10:52:30;;;;;;;13.6;8.3;;;;;;;1.96;57.38867;951.5446;;;;
2023/02/08 10:54:56;;;;;;;13.4;9;;;;;;;1.75;58.66797;951.4623;;;;
2023/02/08 10:57:21;;;;;;;14.4;8.4;;;;;;;1.83;58.28809;951.4379;;;;
2023/02/08 10:59:48;;;;;;;13.6;8.4;;;;;;;1.66;58.92383;951.4156;;;;
2023/02/08 11:02:11;;;;;;;13;8.9;;;;;;;1.83;59.23926;951.3585;;;;
2023/02/08 11:04:36;;;;;;;12.3;8.4;;;;;;;1.79;59.84766;951.3072;;;;
2023/02/08 11:07:06;;;;;;;14.1;9;;;;;;;1.66;59.55078;951.3256;;;;
2023/02/08 11:09:31;;;;;;;13.6;9;;;;;;;1.81;59.91992;951.2704;;;;
2023/02/08 11:12:00;;;;;;;13.2;9.2;;;;;;;1.92;59.88965;951.1672;;;;
2023/02/08 11:14:25;;;;;;;14.6;9.3;;;;;;;2.15;58.34375;951.243;;;;
2023/02/08 11:16:50;;;;;;;14.9;9.7;;;;;;;1.82;59.60645;951.2463;;;;
2023/02/08 11:19:18;;;;;;;13.7;9.5;;;;;;;1.88;59.5918;951.2162;;;;
2023/02/08 11:21:44;;;;;;;12.4;8.7;;;;;;;1.96;59.11133;951.2402;;;;
2023/02/08 11:24:13;;;;;;;15.9;9.4;;;;;;;2.16;60.30273;951.1703;;;;
2023/02/08 11:26:37;;;;;;;13.6;8.9;;;;;;;2.54;58.2959;951.1558;;;;
2023/02/08 11:29:04;;;;;;;15.6;9.7;;;;;;;2.48;57.90625;950.9833;;;;
2023/02/08 11:31:29;;;;;;;13.9;9.4;;;;;;;2.2;60.81445;950.9789;;;;
2023/02/08 11:33:54;;;;;;;16.6;10.1;;;;;;;2.18;60.27344;950.9556;;;;
2023/02/08 11:36:19;;;;;;;16.3;10.2;;;;;;;2.3;60.57031;950.9144;;;;
2023/02/08 11:38:45;;;;;;;14.5;9.7;;;;;;;2.53;57.99219;950.8297;;;;
2023/02/08 11:41:12;;;;;;;14.2;9.4;;;;;;;2.64;58.83594;950.8143;;;;
2023/02/08 11:43:37;;;;;;;13.9;9.3;;;;;;;3.01;56.95996;950.7488;;;;
2023/02/08 11:46:02;;;;;;;15.5;9.8;;;;;;;3.68;56.01465;950.6799;;;;
2023/02/08 11:48:27;;;;;;;13.5;9.1;;;;;;;4.01;53.49414;950.7292;;;;
2023/02/08 11:50:52;;;;;;;12.9;8.7;;;;;;;4.06;52.51074;950.7676;;;;
2023/02/08 11:53:20;;;;;;;13.7;9.4;;;;;;;5.23;52.06836;950.7328;;;;
2023/02/08 11:55:42;;;;;;;13.4;9.1;;;;;;;6.11;48.77344;950.6702;;;;
2023/02/08 11:58:14;;;;;;;12.7;9.3;;;;;;;5.98;49.78613;950.6425;;;;
2023/02/08 12:00:41;;;;;;;13.8;9.5;;;;;;;7.4;46.08691;950.7244;;;;
2023/02/08 12:03:09;;;;;;;13.2;9.1;;;;;;;8.77;41.60547;950.5978;;;;
2023/02/08 12:05:34;;;;;;;13.9;9.1;;;;;;;9.26;41.27832;950.5698;;;;
2023/02/08 12:07:59;;;;;;;11.8;8.4;;;;;;;10.91;38.24805;950.4984;;;;
2023/02/08 12:10:25;;;;;;;12.5;8.9;;;;;;;10.97;38.04785;950.3918;;;;
2023/02/08 12:12:51;;;;;;;13.3;8.5;;;;;;;10.29;40.06543;950.3826;;;;
2023/02/08 12:15:18;;;;;;;11.7;8.2;;;;;;;10.51;38.0752;950.3137;;;;
2023/02/08 12:17:43;;;;;;;10.8;8.1;;;;;;;9.72;39.4873;950.1656;;;;
2023/02/08 12:20:09;;;;;;;11.8;8.3;;;;;;;10.66;38.24805;950.2953;;;;
2023/02/08 12:22:34;;;;;;;13.1;8.8;;;;;;;11.25;37.66016;950.2692;;;;
2023/02/08 12:25:00;;;;;;;12.4;8.4;;;;;;;11.87;35.57324;950.1389;;;;
2023/02/08 12:27:30;;;;;;;11.1;8.1;;;;;;;12.93;34.21191;950.2492;;;;
2023/02/08 12:29:55;;;;;;;11.5;8.4;;;;;;;14.37;31.18164;950.187;;;;
2023/02/08 12:32:24;;;;;;;10.7;7.7;;;;;;;16.21;28.87207;950.2617;;;;
2023/02/08 12:34:50;;;;;;;11.1;7.9;;;;;;;12.85;33.23047;950.3029;;;;
2023/02/08 12:42:05;;;;;;;9.4;7.7;;;;;;;12.97;33.11328;950.1414;;;;
2023/02/08 12:44:35;;;;;;;11.5;8;;;;;;;13.01;32.78418;949.9778;;;;
2023/02/08 12:47:00;;;;;;;11.6;7.6;;;;;;;11.68;35.19043;949.9581;;;;
2023/02/08 12:49:25;;;;;;;10.3;7.7;;;;;;;10.42;37.22266;949.9481;;;;
2023/02/08 12:51:50;;;;;;;10.2;7.7;;;;;;;10.5;37.49219;950.0051;;;;
2023/02/08 12:54:15;;;;;;;11.2;7.8;;;;;;;10.7;37.04102;950.0405;;;;
2023/02/08 12:56:44;;;;;;;11.3;7.8;;;;;;;10.29;37.98828;949.9927;;;;
2023/02/08 12:59:10;;;;;;;10;6.9;;;;;;;11.63;36.19336;949.8836;;;;
2023/02/08 13:01:35;;;;;;;8.7;6.8;;;;;;;11.33;34.69238;949.7999;;;;
2023/02/08 13:04:00;;;;;;;11.1;7;;;;;;;12.3;34.00195;949.7449;;;;
2023/02/08 13:06:25;;;;;;;10.3;6.9;;;;;;;13.3;32.45996;949.6844;;;;
2023/02/08 13:08:50;;;;;;;8.9;6.5;;;;;;;14.98;29.79492;949.5101;;;;
2023/02/08 13:11:17;;;;;;;8.9;6.6;;;;;;;16.7;27.14453;949.4825;;;;
2023/02/08 13:13:42;;;;;;;7.8;6.3;;;;;;;17.01;26.00391;949.3943;;;;
2023/02/08 13:16:10;;;;;;;8.9;6.6;;;;;;;15.73;27.65039;949.3972;;;;
2023/02/08 13:18:35;;;;;;;9.1;6.4;;;;;;;13.09;31.18262;949.4803;;;;
2023/02/08 13:21:00;;;;;;;9.6;7;;;;;;;13.04;31.36133;949.4625;;;;
2023/02/08 13:23:26;;;;;;;10.4;6.3;;;;;;;13.64;31.03711;949.4666;;;;
2023/02/08 13:25:51;;;;;;;9.3;6.1;;;;;;;16.18;27.19336;949.3003;;;;
2023/02/08 13:28:16;;;;;;;8.8;6.3;;;;;;;18.08;24.45313;949.2656;;;;
2023/02/08 13:30:41;;;;;;;10.3;6.7;;;;;;;15.82;27.56348;949.2399;;;;
2023/02/08 13:33:06;;;;;;;8.7;6.4;;;;;;;14.82;29.01074;949.2647;;;;
2023/02/08 13:35:33;;;;;;;7.7;6;;;;;;;15.23;28.34473;949.2164;;;;
2023/02/08 13:38:03;;;;;;;8.1;6.3;;;;;;;14.26;29.12305;949.3049;;;;
2023/02/08 13:40:28;;;;;;;9.3;6.3;;;;;;;12.9;31.71875;949.2966;;;;
2023/02/08 13:42:54;;;;;;;9.1;6.5;;;;;;;14.2;30.21289;949.2798;;;;
2023/02/08 13:45:19;;;;;;;9.2;6.8;;;;;;;13.7;30.56934;949.1993;;;;
2023/02/08 13:47:44;;;;;;;8.9;6.4;;;;;;;13.59;31.00977;949.2622;;;;
2023/02/08 13:50:09;;;;;;;8.3;6.4;;;;;;;13.95;30.12695;949.2224;;;;
2023/02/08 13:52:38;;;;;;;8.6;6.2;;;;;;;14.31;29.67969;949.2183;;;;
2023/02/08 13:55:03;;;;;;;8.7;6.5;;;;;;;12.88;31.92383;949.2473;;;;
2023/02/08 13:57:30;;;;;;;9.8;6.9;;;;;;;13.39;31.65137;949.1939;;;;
2023/02/08 13:59:55;;;;;;;7.7;5.9;;;;;;;14.25;30.19434;949.1894;;;;
2023/02/08 14:02:21;;;;;;;8.9;6.2;;;;;;;14.97;28.80176;949.0657;;;;
2023/02/08 14:04:46;;;;;;;10.6;6.9;;;;;;;14.67;28.89648;949.136;;;;
2023/02/08 14:07:10;;;;;;;10;7.3;;;;;;;15.59;28.61133;949.11;;;;
2023/02/08 14:09:37;;;;;;;9;6.6;;;;;;;15.48;28.41895;949.1386;;;;
2023/02/08 14:12:02;;;;;;;9.7;6.8;;;;;;;16.89;26.71582;949.1656;;;;
2023/02/08 14:14:27;;;;;;;8.8;6.6;;;;;;;16.3;27.53516;949.1412;;;;
2023/02/08 14:16:55;;;;;;;10.8;7.1;;;;;;;14.25;29.60645;949.2062;;;;
2023/02/08 14:19:20;;;;;;;9.2;6.7;;;;;;;13.49;31.61328;949.2439;;;;
2023/02/08 14:21:45;;;;;;;10;6.8;;;;;;;13.03;31.54492;949.1584;;;;
2023/02/08 14:24:11;;;;;;;9.1;7.5;;;;;;;13.35;31.46484;949.1229;;;;
2023/02/08 14:26:36;;;;;;;10.5;7.2;;;;;;;12.6;33.03906;949.1433;;;;
2023/02/08 14:29:04;;;;;;;9.9;6.9;;;;;;;14.03;30.17871;949.1534;;;;
2023/02/08 14:31:29;;;;;;;8.8;6.5;;;;;;;13.96;30.11621;949.1329;;;;
2023/02/08 14:33:58;;;;;;;9.6;7;;;;;;;15.1;28.71777;949.1956;;;;
2023/02/08 14:36:27;;;;;;;8.3;6.6;;;;;;;14.87;28.87598;949.1755;;;;
2023/02/08 14:38:52;;;;;;;9.2;6.6;;;;;;;14.26;29.61816;949.1575;;;;
2023/02/08 14:41:17;;;;;;;9.4;6.9;;;;;;;15.39;28.33301;949.0878;;;;
2023/02/08 14:43:47;;;;;;;12.4;7.6;;;;;;;14.92;28.94824;949.1438;;;;
2023/02/08 14:46:15;;;;;;;9.6;7.1;;;;;;;14.06;29.7666;949.1802;;;;